createdAt,value
2016-09-14T05:43:09.693Z,83.91
2016-09-14T05:44:10.321Z,83.72
2016-09-14T05:45:10.999Z,83.91
2016-09-14T05:46:11.629Z,83.42
2016-09-14T05:47:12.330Z,84.1
2016-09-14T05:48:13.081Z,83.62
2016-09-14T05:49:13.747Z,83.42
2016-09-14T05:50:14.437Z,83.14
2016-09-14T05:51:15.111Z,83.04
2016-09-14T05:52:15.781Z,83.14
2016-09-14T05:53:16.447Z,83.04
2016-09-14T05:54:18.282Z,83.14
2016-09-14T05:55:18.108Z,82.94
2016-09-14T05:56:19.053Z,82.94
2016-09-14T05:57:19.758Z,82.75
2016-09-14T05:58:20.452Z,82.65
2016-09-14T05:59:21.109Z,82.94
2016-09-14T06:00:21.760Z,82.94
2016-09-14T06:01:22.527Z,82.65
2016-09-14T06:02:23.726Z,82.94
2016-09-14T06:03:24.291Z,82.85
2016-09-14T06:04:25.053Z,82.65
2016-09-14T06:05:28.396Z,82.41
2016-09-14T06:06:29.251Z,82.02
2016-09-14T06:07:29.913Z,82.12
2016-09-14T06:08:30.593Z,82.31
2016-09-14T06:09:31.256Z,82.41
2016-09-14T06:10:31.946Z,81.73
2016-09-14T06:11:32.613Z,81.83
2016-09-14T06:12:33.840Z,82.12
2016-09-14T06:13:34.592Z,82.12
2016-09-14T06:14:35.263Z,81.93
2016-09-14T06:15:35.964Z,81.63
2016-09-14T06:16:36.661Z,81.45
2016-09-14T06:17:37.364Z,81.83
2016-09-14T06:18:38.016Z,81.16
2016-09-14T06:19:38.767Z,80.14
2016-09-14T06:20:39.591Z,79.69
2016-09-14T06:21:40.284Z,78.34
2016-09-14T06:22:40.940Z,77.48
2016-09-14T06:23:41.609Z,77.28
2016-09-14T06:24:42.273Z,77.19
2016-09-14T06:25:42.982Z,77.67
2016-09-14T06:26:44.008Z,77.96
2016-09-14T06:27:44.665Z,77.96
2016-09-14T06:28:45.330Z,77.96
2016-09-14T06:29:46.088Z,78.34
2016-09-14T06:30:46.782Z,78.31
2016-09-14T06:31:47.494Z,78.69
2016-09-14T06:32:49.779Z,78.88
2016-09-14T06:33:50.627Z,79.02
2016-09-14T06:34:52.048Z,78.25
2016-09-14T06:35:54.191Z,78.15
2016-09-14T06:36:55.454Z,77.96
2016-09-14T06:37:58.224Z,77.76
2016-09-14T06:38:58.972Z,77
2016-09-14T06:39:59.661Z,75.97
2016-09-14T06:41:00.337Z,74.76
2016-09-14T06:42:01.006Z,74.12
2016-09-14T06:43:01.708Z,72.32
2016-09-14T06:44:02.413Z,70.52
2016-09-14T06:45:03.114Z,69.68
2016-09-14T06:46:03.796Z,68.56
2016-09-14T06:47:04.460Z,67.66
2016-09-14T06:48:05.115Z,66.63
2016-09-14T06:49:05.778Z,66.14
2016-09-14T06:50:06.467Z,65.66
2016-09-14T06:51:07.104Z,65.66
2016-09-14T06:52:07.769Z,65.4
2016-09-14T06:53:08.428Z,65.66
2016-09-14T06:54:09.116Z,66.14
2016-09-14T06:55:09.803Z,65.85
2016-09-14T06:56:10.492Z,65.95
2016-09-14T06:57:11.144Z,65.47
2016-09-14T06:58:11.878Z,66.33
2016-09-14T06:59:12.525Z,65.47
2016-09-14T07:00:13.223Z,64.34
2016-09-14T07:01:13.960Z,63.95
2016-09-14T07:02:14.652Z,63.4
2016-09-14T07:03:15.404Z,62.37
2016-09-14T07:04:16.023Z,63.31
2016-09-14T07:05:16.738Z,62.69
2016-09-14T07:06:17.390Z,62.72
2016-09-14T07:07:18.068Z,62.88
2016-09-14T07:08:18.741Z,62.56
2016-09-14T07:09:19.414Z,61.01
2016-09-14T07:10:20.077Z,60.72
2016-09-14T07:11:20.713Z,60.17
2016-09-14T07:12:21.372Z,59.69
2016-09-14T07:13:22.043Z,60.27
2016-09-14T07:14:22.679Z,60.33
2016-09-14T07:15:23.338Z,60.52
2016-09-14T07:16:24.019Z,59.97
2016-09-14T07:17:24.690Z,59.13
2016-09-14T07:18:25.375Z,58.55
2016-09-14T07:19:26.028Z,57.7
2016-09-14T07:20:26.668Z,57.78
2016-09-14T07:21:27.330Z,57.7
2016-09-14T07:22:28.011Z,58.14
2016-09-14T07:23:28.675Z,58.69
2016-09-14T07:24:29.352Z,60.24
2016-09-14T07:25:30.020Z,58.72
2016-09-14T07:26:30.688Z,57.48
2016-09-14T07:27:31.410Z,56.71
2016-09-14T07:28:32.050Z,57.58
2016-09-14T07:29:32.793Z,57.48
2016-09-14T07:30:33.548Z,56.83
2016-09-14T07:31:34.214Z,56.41
2016-09-14T07:32:34.880Z,56.35
2016-09-14T07:33:35.548Z,56.61
2016-09-14T07:34:36.180Z,57.07
2016-09-14T07:35:36.839Z,57.68
2016-09-14T07:36:37.479Z,56.9
2016-09-14T07:37:38.144Z,57.55
2016-09-14T07:38:38.817Z,58.62
2016-09-14T07:39:39.469Z,57.71
2016-09-14T07:40:40.118Z,59.82
2016-09-14T07:41:40.782Z,60.01
2016-09-14T07:42:41.460Z,60.21
2016-09-14T07:43:42.091Z,59.36
2016-09-14T07:44:42.757Z,59.36
2016-09-14T07:45:43.398Z,59.27
2016-09-14T07:46:44.255Z,59.36
2016-09-14T07:47:45.137Z,59.56
2016-09-14T07:48:46.061Z,58.59
2016-09-14T07:49:46.836Z,58.14
2016-09-14T07:50:48.447Z,57.48
2016-09-14T07:51:48.760Z,57.65
2016-09-14T07:52:53.958Z,58.11
2016-09-14T07:53:54.590Z,58.62
2016-09-14T07:54:55.241Z,58.49
2016-09-14T07:55:55.915Z,57.75
2016-09-14T07:56:56.577Z,57.36
2016-09-14T07:57:57.255Z,57
2016-09-14T07:58:58.201Z,56.35
2016-09-14T07:59:59.187Z,55.38
2016-09-14T08:00:59.876Z,55.87
2016-09-14T08:02:00.541Z,55.77
2016-09-14T08:03:01.397Z,56.15
2016-09-14T08:04:02.965Z,56.05
2016-09-14T08:05:03.638Z,55.77
2016-09-14T08:06:04.310Z,56.41
2016-09-14T08:07:04.961Z,56.03
2016-09-14T08:08:05.607Z,57.19
2016-09-14T08:09:06.278Z,57.09
2016-09-14T08:10:06.948Z,56.9
2016-09-14T08:11:07.614Z,56.74
2016-09-14T08:12:08.389Z,56.25
2016-09-14T08:13:09.061Z,56.61
2016-09-14T08:14:09.730Z,56.83
2016-09-14T08:15:10.384Z,56.32
2016-09-14T08:16:11.033Z,57.81
2016-09-14T08:17:11.712Z,58.59
2016-09-14T08:18:12.381Z,58.3
2016-09-14T08:19:13.027Z,58.2
2016-09-14T08:20:13.671Z,58.11
2016-09-14T08:21:14.332Z,57.84
2016-09-14T08:22:14.968Z,57.75
2016-09-14T08:23:15.627Z,57.84
2016-09-14T08:24:16.283Z,57.17
2016-09-14T08:25:16.973Z,57.29
2016-09-14T08:26:17.637Z,56.87
2016-09-14T08:27:18.290Z,57.75
2016-09-14T08:28:18.949Z,57.71
2016-09-14T08:29:19.677Z,58.2
2016-09-14T08:30:20.342Z,58.01
2016-09-14T08:31:21.021Z,57.81
2016-09-14T08:32:21.697Z,58.11
2016-09-14T08:33:22.357Z,57.94
2016-09-14T08:34:23.023Z,57.75
2016-09-14T08:35:23.713Z,57.94
2016-09-14T08:36:24.376Z,57.75
2016-09-14T08:37:25.062Z,56.61
2016-09-14T08:38:25.723Z,56.71
2016-09-14T08:39:26.391Z,56.23
2016-09-14T08:40:27.069Z,56.15
2016-09-14T08:41:27.731Z,55.96
2016-09-14T08:42:28.402Z,56.35
2016-09-14T08:43:29.065Z,56.59
2016-09-14T08:44:29.704Z,57.55
2016-09-14T08:45:30.359Z,57.75
2016-09-14T08:46:31.078Z,57.81
2016-09-14T08:47:31.725Z,57.65
2016-09-14T08:48:32.402Z,57.87
2016-09-14T08:49:33.060Z,56.71
2016-09-14T08:50:33.726Z,56.15
2016-09-14T08:51:34.400Z,56.81
2016-09-14T08:52:35.123Z,56.9
2016-09-14T08:53:35.810Z,55.96
2016-09-14T08:54:36.477Z,56.25
2016-09-14T08:55:37.143Z,56.23
2016-09-14T08:56:37.803Z,56.03
2016-09-14T08:57:38.483Z,56.15
2016-09-14T08:58:39.152Z,55.77
2016-09-14T08:59:39.829Z,55.47
2016-09-14T09:00:40.496Z,55.67
2016-09-14T09:01:41.176Z,55.6
2016-09-14T09:02:41.842Z,55.38
2016-09-14T09:03:42.515Z,53.83
2016-09-14T09:04:43.192Z,54.48
2016-09-14T09:05:43.878Z,55.64
2016-09-14T09:06:44.585Z,55.77
2016-09-14T09:07:45.253Z,55.87
2016-09-14T09:08:45.901Z,56.23
2016-09-14T09:09:46.638Z,55.83
2016-09-14T09:10:47.358Z,56.71
2016-09-14T09:11:48.012Z,56.13
2016-09-14T09:12:48.724Z,56.41
2016-09-14T09:13:49.385Z,56.23
2016-09-14T09:14:50.062Z,55.93
2016-09-14T09:15:50.742Z,55.74
2016-09-14T09:16:51.411Z,55.77
2016-09-14T09:17:52.083Z,55.64
2016-09-14T09:18:52.747Z,55.35
2016-09-14T09:19:53.430Z,55.74
2016-09-14T09:20:54.118Z,56
2016-09-14T09:21:54.775Z,56.32
2016-09-14T09:22:55.496Z,55.74
2016-09-14T09:23:56.155Z,54.96
2016-09-14T09:24:56.834Z,54.67
2016-09-14T09:25:57.508Z,55.26
2016-09-14T09:26:58.160Z,55.35
2016-09-14T09:27:58.814Z,55.74
2016-09-14T09:28:59.474Z,55.32
2016-09-14T09:30:00.143Z,56.1
2016-09-14T09:31:00.808Z,55.83
2016-09-14T09:32:01.482Z,54.96
2016-09-14T09:33:02.152Z,55.26
2016-09-14T09:34:02.813Z,53.7
2016-09-14T09:35:03.463Z,53.41
2016-09-14T09:36:04.113Z,53.7
2016-09-14T09:37:04.754Z,53.61
2016-09-14T09:38:05.412Z,53.41
2016-09-14T09:39:06.087Z,53.8
2016-09-14T09:40:06.746Z,53.61
2016-09-14T09:41:07.396Z,52.73
2016-09-14T09:42:08.046Z,52.93
2016-09-14T09:43:08.703Z,53.99
2016-09-14T09:44:09.345Z,53.51
2016-09-14T09:45:09.997Z,53.12
2016-09-14T09:46:10.639Z,53.12
2016-09-14T09:47:11.304Z,52.54
2016-09-14T09:48:11.971Z,52.15
2016-09-14T09:49:12.628Z,51.37
2016-09-14T09:50:13.308Z,52.28
2016-09-14T09:51:13.965Z,51.47
2016-09-14T09:52:14.612Z,51.28
2016-09-14T09:53:15.271Z,51.4
2016-09-14T09:54:15.950Z,51.01
2016-09-14T09:55:16.612Z,50.24
2016-09-14T09:56:17.255Z,50.14
2016-09-14T09:57:17.901Z,50.53
2016-09-14T09:58:18.581Z,49.75
2016-09-14T09:59:19.274Z,49.85
2016-09-14T10:00:19.974Z,49.17
2016-09-14T10:01:20.615Z,49.07
2016-09-14T10:02:21.272Z,49.07
2016-09-14T10:03:21.937Z,48.22
2016-09-14T10:04:22.608Z,49.66
2016-09-14T10:05:23.287Z,48.9
2016-09-14T10:06:24.065Z,49
2016-09-14T10:07:24.776Z,48.52
2016-09-14T10:08:25.427Z,48.32
2016-09-14T10:09:26.090Z,48.22
2016-09-14T10:10:26.755Z,48.52
2016-09-14T10:11:27.908Z,48.52
2016-09-14T10:12:29.644Z,49.58
2016-09-14T10:13:30.304Z,47.83
2016-09-14T10:14:30.983Z,47.74
2016-09-14T10:15:31.642Z,47.83
2016-09-14T10:16:32.310Z,47.45
2016-09-14T10:17:32.972Z,47.64
2016-09-14T10:18:33.627Z,48.22
2016-09-14T10:19:34.287Z,48.52
2016-09-14T10:20:35.016Z,47.45
2016-09-14T10:21:35.676Z,47.74
2016-09-14T10:22:36.324Z,48.42
2016-09-14T10:23:36.980Z,47.74
2016-09-14T10:24:37.645Z,48.61
2016-09-14T10:25:38.313Z,48.71
2016-09-14T10:26:39.012Z,48.54
2016-09-14T10:27:39.667Z,48.42
2016-09-14T10:28:40.325Z,48.61
2016-09-14T10:29:40.965Z,48.71
2016-09-14T10:30:41.622Z,48.03
2016-09-14T10:31:42.261Z,47.83
2016-09-14T10:32:42.924Z,47.47
2016-09-14T10:33:43.592Z,46.6
2016-09-14T10:34:44.318Z,46.5
2016-09-14T10:35:44.957Z,46.69
2016-09-14T10:36:45.606Z,46.41
2016-09-14T10:37:46.265Z,46.5
2016-09-14T10:38:46.906Z,46.21
2016-09-14T10:39:47.568Z,46.31
2016-09-14T10:40:48.226Z,46.6
2016-09-14T10:41:48.876Z,46.89
2016-09-14T10:42:49.539Z,46.69
2016-09-14T10:43:51.104Z,46.98
2016-09-14T10:44:51.754Z,47.18
2016-09-14T10:45:52.506Z,45.92
2016-09-14T10:46:53.146Z,46.79
2016-09-14T10:47:53.830Z,46.42
2016-09-14T10:48:54.755Z,46.42
2016-09-14T10:49:55.201Z,46.33
2016-09-14T10:50:55.844Z,46.31
2016-09-14T10:51:56.803Z,46.41
2016-09-14T10:52:57.463Z,46.14
2016-09-14T10:53:58.115Z,45.43
2016-09-14T10:54:58.800Z,46.11
2016-09-14T10:55:59.584Z,46.14
2016-09-14T10:57:00.297Z,46.31
2016-09-14T10:58:00.943Z,46.11
2016-09-14T10:59:01.779Z,46.04
2016-09-14T11:00:02.634Z,45.45
2016-09-14T11:01:03.239Z,45.94
2016-09-14T11:02:03.901Z,45.94
2016-09-14T11:03:04.553Z,44.87
2016-09-14T11:04:05.223Z,45.65
2016-09-14T11:05:05.872Z,45.55
2016-09-14T11:06:06.538Z,45.36
2016-09-14T11:07:07.196Z,45.84
2016-09-14T11:08:07.851Z,45.17
2016-09-14T11:09:08.503Z,45.38
2016-09-14T11:10:09.158Z,45.36
2016-09-14T11:11:09.816Z,44.68
2016-09-14T11:12:10.474Z,45.07
2016-09-14T11:13:11.123Z,44.38
2016-09-14T11:14:11.793Z,44
2016-09-14T11:15:12.463Z,44.12
2016-09-14T11:16:13.163Z,44.02
2016-09-14T11:17:13.812Z,44.12
2016-09-14T11:18:14.457Z,43.41
2016-09-14T11:19:15.111Z,43.22
2016-09-14T11:20:15.761Z,43.54
2016-09-14T11:21:16.444Z,43.24
2016-09-14T11:22:17.110Z,44.21
2016-09-14T11:23:17.779Z,43.15
2016-09-14T11:24:18.470Z,43.15
2016-09-14T11:25:19.143Z,44.31
2016-09-14T11:26:19.805Z,44.12
2016-09-14T11:27:20.599Z,44.21
2016-09-14T11:28:21.426Z,44.12
2016-09-14T11:29:22.079Z,44.21
2016-09-14T11:30:22.750Z,43.92
2016-09-14T11:31:23.406Z,44.21
2016-09-14T11:32:24.078Z,44.21
2016-09-14T11:33:24.778Z,44.12
2016-09-14T11:34:25.433Z,44.51
